Time;durP1;ratioP1;P1;durP2;ratioP2;P2;SDS_P1;SDS_P2;PMS_P1;PMS_P2;Temp;Humidity;BMP_temperature;BMP_pressure;BME280_temperature;BME280_humidity;BME280_pressure;Samples;Min_cycle;Max_cycle;Signal;HPM_P1;HPM_P2
2023/05/31 00:00:56;;;;;;;8.85;2.80;;;;;;;11.79;79.17;101832.34;2090043;28;20064;-70
2023/05/31 00:01:57;;;;;;;11.25;2.72;;;;;;;11.81;79.43;101836.44;2089563;28;20033;-70
2023/05/31 00:02:59;;;;;;;4.78;2.33;;;;;;;11.81;78.99;101835.63;2073868;28;20042;-70
2023/05/31 00:04:03;;;;;;;8.52;2.15;;;;;;;11.81;79.10;101830.22;2057474;28;20041;-70
2023/05/31 00:05:07;;;;;;;10.00;2.60;;;;;;;11.84;78.99;101829.72;2074576;28;20035;-69
2023/05/31 00:06:29;;;;;;;8.23;2.15;;;;;;;11.85;78.77;101828.69;2090065;28;20041;-69
2023/05/31 00:07:33;;;;;;;6.32;2.10;;;;;;;11.83;78.81;101836.19;2082964;28;20034;-69
2023/05/31 00:08:36;;;;;;;7.03;2.10;;;;;;;11.85;78.81;101835.94;2090673;28;20123;-69
2023/05/31 00:09:37;;;;;;;7.10;2.17;;;;;;;11.86;78.59;101837.59;2089118;28;20045;-69
2023/05/31 00:10:41;;;;;;;9.63;4.13;;;;;;;11.83;78.45;101834.31;2090324;28;20073;-69
2023/05/31 00:11:46;;;;;;;6.38;2.00;;;;;;;11.81;78.45;101835.63;2090266;28;20037;-69
2023/05/31 00:12:48;;;;;;;7.65;2.20;;;;;;;11.79;78.13;101829.66;2081816;28;20037;-69
2023/05/31 00:13:50;;;;;;;7.20;2.10;;;;;;;11.73;77.87;101828.03;2073884;28;20153;-70
2023/05/31 00:14:51;;;;;;;11.48;2.17;;;;;;;11.71;78.06;101835.53;2073562;28;20070;-69
2023/05/31 00:15:53;;;;;;;10.75;2.00;;;;;;;11.69;77.90;101826.88;2073677;28;20895;-69
2023/05/31 00:16:54;;;;;;;8.65;2.30;;;;;;;11.73;78.20;101823.44;2073751;28;20081;-69
2023/05/31 00:17:56;;;;;;;5.30;2.08;;;;;;;11.79;77.70;101821.59;2065272;28;20077;-69
2023/05/31 00:19:00;;;;;;;8.90;2.10;;;;;;;11.80;77.45;101832.13;2074057;28;20038;-69
2023/05/31 00:20:03;;;;;;;10.00;2.13;;;;;;;11.77;77.49;101831.81;2073793;28;20078;-69
2023/05/31 00:21:05;;;;;;;5.43;2.53;;;;;;;11.76;77.38;101833.72;2065653;28;20043;-69
2023/05/31 00:22:10;;;;;;;7.68;2.20;;;;;;;11.77;77.48;101835.31;2066744;28;20786;-69
2023/05/31 00:23:11;;;;;;;7.68;2.55;;;;;;;11.82;77.55;101837.25;2073613;28;20034;-69
2023/05/31 00:24:13;;;;;;;6.85;2.08;;;;;;;11.82;77.14;101837.25;2065304;28;20078;-69
2023/05/31 00:25:15;;;;;;;5.82;2.13;;;;;;;11.82;77.07;101843.47;2082432;28;20870;-70
2023/05/31 00:26:19;;;;;;;7.55;2.28;;;;;;;11.79;76.76;101843.13;2089839;28;20918;-69
2023/05/31 00:27:21;;;;;;;5.88;2.40;;;;;;;11.71;76.85;101836.34;2079011;28;20034;-70
2023/05/31 00:28:26;;;;;;;8.02;2.05;;;;;;;11.69;77.22;101837.66;2069679;28;20172;-71
2023/05/31 00:29:29;;;;;;;8.93;2.58;;;;;;;11.68;77.30;101833.34;2073712;28;20053;-71
2023/05/31 00:30:30;;;;;;;7.50;2.75;;;;;;;11.71;77.59;101836.34;2073679;28;20034;-70
2023/05/31 00:31:32;;;;;;;7.47;2.10;;;;;;;11.74;77.40;101835.84;2071299;28;20069;-70
2023/05/31 00:32:35;;;;;;;4.45;1.90;;;;;;;11.78;77.36;101836.94;2081352;28;20046;-70
2023/05/31 00:33:37;;;;;;;13.40;2.33;;;;;;;11.80;77.08;101840.19;2081515;28;20037;-70
2023/05/31 00:34:39;;;;;;;5.93;2.03;;;;;;;11.83;77.02;101846.97;2065288;28;20042;-70
2023/05/31 00:35:41;;;;;;;6.95;2.38;;;;;;;11.80;76.84;101848.28;2073554;28;20964;-70
2023/05/31 00:36:43;;;;;;;5.55;2.45;;;;;;;11.80;76.50;101856.38;2065152;28;20780;-69
2023/05/31 00:37:47;;;;;;;7.70;2.40;;;;;;;11.81;76.96;101852.59;2065671;28;20042;-70
2023/05/31 00:38:49;;;;;;;8.23;2.30;;;;;;;11.83;76.64;101849.66;2073206;28;20374;-70
2023/05/31 00:39:53;;;;;;;6.32;2.00;;;;;;;11.85;76.71;101844.03;2073360;28;20034;-70
2023/05/31 00:40:57;;;;;;;10.45;1.95;;;;;;;11.81;76.25;101847.22;2073538;28;20089;-70
2023/05/31 00:41:59;;;;;;;4.32;1.90;;;;;;;11.81;76.77;101841.81;2072953;28;20034;-70
2023/05/31 00:43:01;;;;;;;8.10;2.38;;;;;;;11.79;76.41;101843.97;2073235;28;20848;-70
2023/05/31 00:44:03;;;;;;;6.68;1.92;;;;;;;11.77;76.41;101839.91;2082041;28;20840;-70
2023/05/31 00:45:08;;;;;;;4.85;1.95;;;;;;;11.72;76.41;101843.34;2097962;28;20091;-70
2023/05/31 00:46:22;;;;;;;6.57;1.90;;;;;;;11.66;76.25;101838.97;2082476;28;20038;-70
2023/05/31 00:47:28;;;;;;;5.97;2.42;;;;;;;11.66;76.66;101838.97;2070137;28;20039;-70
2023/05/31 00:48:29;;;;;;;6.90;2.10;;;;;;;11.69;76.83;101840.34;2067786;28;20041;-70
2023/05/31 00:49:31;;;;;;;4.88;1.60;;;;;;;11.71;76.57;101846.31;2066734;28;20054;-70
2023/05/31 00:50:33;;;;;;;6.88;1.95;;;;;;;11.69;76.27;101845.75;2066521;28;20039;-70
2023/05/31 00:51:36;;;;;;;4.47;2.10;;;;;;;11.66;76.48;101844.34;2067447;28;20038;-70
2023/05/31 00:52:37;;;;;;;6.30;2.22;;;;;;;11.65;76.78;101837.34;2083201;28;20034;-70
2023/05/31 00:53:40;;;;;;;7.47;2.22;;;;;;;11.64;76.70;101845.72;2074952;28;20057;-70
2023/05/31 00:54:42;;;;;;;7.32;2.38;;;;;;;11.55;76.59;101843.44;2083050;28;20056;-70
2023/05/31 00:55:46;;;;;;;6.55;1.80;;;;;;;11.51;76.73;101846.91;2083015;28;20038;-69
2023/05/31 00:56:48;;;;;;;4.40;1.70;;;;;;;11.49;77.01;101847.16;2074827;28;20034;-69
2023/05/31 00:57:52;;;;;;;5.30;2.33;;;;;;;11.48;76.52;101839.34;2075794;28;20045;-69
2023/05/31 00:58:56;;;;;;;6.50;2.30;;;;;;;11.47;76.66;101835.81;2075205;28;20042;-69
2023/05/31 00:59:57;;;;;;;8.40;2.65;;;;;;;11.50;76.52;101835.31;2075618;28;20038;-70
2023/05/31 01:01:00;;;;;;;4.80;1.92;;;;;;;11.50;76.29;101837.19;2074915;28;20041;-69
2023/05/31 01:02:05;;;;;;;8.50;2.50;;;;;;;11.47;76.33;101841.19;2074626;28;20153;-70
2023/05/31 01:03:08;;;;;;;6.72;2.30;;;;;;;11.46;76.06;101841.47;2067881;28;20081;-70
2023/05/31 01:04:10;;;;;;;7.22;2.75;;;;;;;11.47;76.15;101845.78;2082909;28;20058;-70
2023/05/31 01:05:15;;;;;;;5.05;2.38;;;;;;;11.42;75.78;101837.66;2091070;28;20100;-70
2023/05/31 01:06:16;;;;;;;5.88;2.50;;;;;;;11.32;75.49;101836.47;2074376;28;20165;-70
2023/05/31 01:07:18;;;;;;;5.15;2.25;;;;;;;11.29;75.89;101838.88;2055104;28;20034;-70
2023/05/31 01:08:23;;;;;;;7.80;2.42;;;;;;;11.29;75.56;101836.97;2074523;28;20138;-70
2023/05/31 01:09:25;;;;;;;8.15;2.58;;;;;;;11.27;75.44;101841.00;2059147;28;20055;-71
2023/05/31 01:10:28;;;;;;;8.85;2.70;;;;;;;11.23;75.83;101843.38;2066927;28;20035;-70
2023/05/31 01:11:43;;;;;;;7.85;2.70;;;;;;;11.19;75.76;101836.03;2074710;28;20984;-70
2023/05/31 01:13:03;;;;;;;7.75;2.33;;;;;;;11.13;75.90;101829.81;2070961;28;20055;-70
2023/05/31 01:14:20;;;;;;;6.57;2.40;;;;;;;11.11;76.09;101835.41;2072112;28;20121;-70
2023/05/31 01:15:31;;;;;;;7.88;2.78;;;;;;;11.11;76.05;101837.28;2085302;28;20868;-70
2023/05/31 01:16:38;;;;;;;5.90;2.55;;;;;;;11.08;76.22;101837.78;2084058;28;20034;-70
2023/05/31 01:17:44;;;;;;;4.93;2.72;;;;;;;11.09;76.49;101839.41;2075926;28;20904;-70
2023/05/31 01:18:54;;;;;;;5.47;2.88;;;;;;;11.07;76.41;101841.56;2084509;28;20940;-70
2023/05/31 01:20:03;;;;;;;6.50;2.10;;;;;;;11.05;76.67;101832.91;2074532;28;20027;-69
2023/05/31 01:21:06;;;;;;;10.27;2.47;;;;;;;10.99;77.25;101844.69;2061594;28;20340;-70
2023/05/31 01:22:38;;;;;;;6.85;2.13;;;;;;;10.98;77.34;101837.69;2075324;28;20037;-70
2023/05/31 01:23:53;;;;;;;8.48;2.28;;;;;;;11.02;77.83;101839.59;2078891;28;20901;-70
2023/05/31 01:25:27;;;;;;;7.25;2.00;;;;;;;11.12;77.82;101838.91;2084557;28;20038;-70
2023/05/31 01:26:48;;;;;;;4.90;2.35;;;;;;;11.20;78.35;101838.50;2087627;28;20174;-70
2023/05/31 01:27:54;;;;;;;5.63;1.97;;;;;;;11.25;78.31;101846.59;2081522;28;20076;-70
2023/05/31 01:29:00;;;;;;;5.43;2.17;;;;;;;11.23;77.77;101840.69;2082687;28;20205;-71
2023/05/31 01:30:04;;;;;;;5.40;2.03;;;;;;;11.31;77.51;101842.91;2083479;28;21149;-70
2023/05/31 01:31:10;;;;;;;5.32;2.00;;;;;;;11.33;77.50;101846.19;2073350;28;20050;-70
2023/05/31 01:32:14;;;;;;;10.10;2.30;;;;;;;11.32;77.48;101843.75;2082347;28;20048;-70
2023/05/31 01:33:17;;;;;;;5.07;1.80;;;;;;;11.31;77.09;101845.59;2082710;28;20157;-70
2023/05/31 01:34:19;;;;;;;6.82;2.08;;;;;;;11.29;77.32;101847.75;2082653;28;20034;-71
2023/05/31 01:35:23;;;;;;;5.55;2.00;;;;;;;11.24;76.61;101847.69;2074780;28;20877;-70
2023/05/31 01:36:25;;;;;;;4.65;1.98;;;;;;;11.18;77.13;101837.91;2067264;28;20161;-70
2023/05/31 01:37:28;;;;;;;6.55;1.85;;;;;;;11.16;77.06;101840.06;2055269;28;20046;-69
2023/05/31 01:38:32;;;;;;;3.90;1.75;;;;;;;11.14;77.07;101844.88;2074889;28;20042;-69
2023/05/31 01:39:33;;;;;;;6.53;2.35;;;;;;;11.12;77.02;101838.91;2074452;28;20041;-69
2023/05/31 01:40:36;;;;;;;6.07;1.80;;;;;;;11.12;77.11;101839.72;2066294;28;20035;-69
2023/05/31 01:41:42;;;;;;;8.02;2.15;;;;;;;11.14;76.84;101847.56;2067262;28;20165;-69
2023/05/31 01:42:49;;;;;;;5.28;1.90;;;;;;;11.16;76.68;101834.69;2083921;28;20140;-70
2023/05/31 01:43:54;;;;;;;4.43;1.70;;;;;;;11.14;76.85;101842.19;2075314;28;20168;-69
2023/05/31 01:44:58;;;;;;;4.38;1.80;;;;;;;11.13;76.80;101840.56;2075698;28;20042;-70
2023/05/31 01:46:01;;;;;;;6.28;1.80;;;;;;;11.14;76.52;101837.59;2090863;28;20037;-70
2023/05/31 01:47:03;;;;;;;4.88;1.98;;;;;;;11.16;76.74;101833.84;2099208;28;20021;-69
2023/05/31 01:48:09;;;;;;;6.82;2.90;;;;;;;11.17;76.52;101844.38;2082493;28;20041;-69
2023/05/31 01:49:11;;;;;;;3.88;1.60;;;;;;;11.15;76.46;101838.41;2067233;28;20047;-69
2023/05/31 01:50:14;;;;;;;4.28;1.90;;;;;;;11.10;76.30;101838.38;2082617;28;20038;-70
2023/05/31 01:51:17;;;;;;;6.40;1.67;;;;;;;11.04;76.72;101837.50;2082692;28;20041;-70
2023/05/31 01:52:20;;;;;;;8.45;1.95;;;;;;;11.03;76.29;101840.41;2082496;28;20060;-69
2023/05/31 01:53:22;;;;;;;6.80;1.83;;;;;;;11.04;76.71;101839.38;2082486;28;20046;-69
2023/05/31 01:54:24;;;;;;;4.47;1.75;;;;;;;11.02;76.95;101838.78;2074576;28;20030;-69
2023/05/31 01:55:26;;;;;;;6.25;1.77;;;;;;;11.03;76.70;101835.84;2074652;28;20038;-69
2023/05/31 01:56:30;;;;;;;4.28;1.90;;;;;;;11.02;76.47;101838.78;2057979;28;20035;-69
2023/05/31 01:57:34;;;;;;;4.22;1.73;;;;;;;11.02;76.53;101836.09;2066502;28;20023;-70
2023/05/31 01:58:38;;;;;;;4.45;1.48;;;;;;;11.04;77.00;101836.69;2074512;28;20041;-69
2023/05/31 01:59:43;;;;;;;10.35;1.85;;;;;;;11.11;77.42;101837.28;2074556;28;20042;-70
2023/05/31 02:00:45;;;;;;;8.38;1.80;;;;;;;11.12;76.97;101836.22;2075309;28;20030;-69
2023/05/31 02:01:47;;;;;;;9.20;1.73;;;;;;;11.11;76.91;101831.91;2074289;28;20034;-69
2023/05/31 02:02:51;;;;;;;5.10;1.92;;;;;;;11.11;76.61;101837.28;2074286;28;20053;-69
2023/05/31 02:03:52;;;;;;;4.78;1.90;;;;;;;11.12;76.72;101833.53;2074680;28;20053;-69
2023/05/31 02:05:08;;;;;;;5.68;1.73;;;;;;;11.05;76.45;101839.09;2080808;28;20034;-70
2023/05/31 02:06:12;;;;;;;3.70;1.65;;;;;;;11.05;76.69;101832.91;2068309;28;20035;-69
2023/05/31 02:07:14;;;;;;;4.25;1.92;;;;;;;11.04;77.14;101834.00;2073784;28;20105;-69
2023/05/31 02:08:19;;;;;;;5.50;1.83;;;;;;;11.03;76.58;101840.41;2061760;28;20891;-70
2023/05/31 02:09:21;;;;;;;5.47;2.13;;;;;;;11.05;76.93;101835.59;2073823;28;20058;-70
2023/05/31 02:10:23;;;;;;;4.68;1.60;;;;;;;11.04;76.95;101836.69;2083151;28;20042;-70
2023/05/31 02:11:26;;;;;;;3.75;1.67;;;;;;;11.07;77.28;101830.81;2080031;28;20168;-69
2023/05/31 02:12:30;;;;;;;4.53;1.90;;;;;;;11.08;77.02;101835.91;2075251;28;20042;-69
2023/05/31 02:13:34;;;;;;;3.65;1.40;;;;;;;11.08;77.04;101830.53;2083025;28;20038;-71
2023/05/31 02:14:36;;;;;;;5.03;2.03;;;;;;;11.07;76.70;101830.81;2088608;28;20034;-69
2023/05/31 02:15:41;;;;;;;8.15;1.38;;;;;;;11.08;77.08;101830.53;2082335;28;20722;-68
2023/05/31 02:16:42;;;;;;;3.58;1.45;;;;;;;11.15;77.35;101835.72;2082792;28;20120;-68
2023/05/31 02:17:44;;;;;;;5.10;1.50;;;;;;;11.17;77.16;101830.09;2074085;28;20049;-68
2023/05/31 02:18:45;;;;;;;4.40;1.58;;;;;;;11.16;76.80;101829.28;2066135;28;20125;-68
2023/05/31 02:19:47;;;;;;;2.88;1.40;;;;;;;11.12;76.90;101823.56;2074420;28;20769;-68
2023/05/31 02:20:50;;;;;;;3.85;1.50;;;;;;;11.11;76.72;101819.25;2082585;28;21239;-68
2023/05/31 02:21:53;;;;;;;3.95;1.73;;;;;;;11.15;77.44;101827.66;2082401;28;20045;-68
2023/05/31 02:22:55;;;;;;;5.43;1.77;;;;;;;11.16;77.06;101823.91;2082388;28;20037;-68
2023/05/31 02:23:58;;;;;;;4.07;1.45;;;;;;;11.18;76.90;101826.34;2066131;28;20047;-70
2023/05/31 02:25:05;;;;;;;5.10;1.70;;;;;;;11.26;77.18;101828.59;2067995;28;20042;-70
2023/05/31 02:26:07;;;;;;;5.10;1.77;;;;;;;11.28;76.62;101816.50;2091666;28;20764;-70
2023/05/31 02:27:08;;;;;;;3.00;1.30;;;;;;;11.29;76.46;101826.22;2081216;28;20076;-70
2023/05/31 02:28:10;;;;;;;4.20;1.20;;;;;;;11.28;76.46;101829.13;2081632;28;20076;-69
2023/05/31 02:29:12;;;;;;;4.93;1.30;;;;;;;11.26;76.59;101828.59;2073873;28;20145;-69
2023/05/31 02:30:14;;;;;;;4.45;1.50;;;;;;;11.24;76.82;101825.34;2074571;28;20850;-69
2023/05/31 02:31:21;;;;;;;3.70;1.73;;;;;;;11.21;76.26;101826.66;2090136;28;20037;-69
2023/05/31 02:32:23;;;;;;;4.63;1.50;;;;;;;11.20;76.94;101822.34;2078882;28;20038;-69
2023/05/31 02:33:25;;;;;;;4.00;1.55;;;;;;;11.25;76.79;101827.75;2066299;28;20039;-70
2023/05/31 02:34:27;;;;;;;6.10;1.83;;;;;;;11.27;76.50;101831.03;2050031;28;20039;-70
2023/05/31 02:35:29;;;;;;;5.70;1.77;;;;;;;11.32;76.41;101828.41;2071227;28;20034;-70
2023/05/31 02:36:32;;;;;;;4.53;1.42;;;;;;;11.34;76.46;101820.88;2089916;28;20072;-69
2023/05/31 02:37:33;;;;;;;3.45;1.45;;;;;;;11.30;76.63;101830.53;2078377;28;20815;-69
2023/05/31 02:38:35;;;;;;;4.50;1.60;;;;;;;11.30;76.82;101824.31;2071639;28;20081;-70
2023/05/31 02:39:39;;;;;;;5.45;1.63;;;;;;;11.25;76.50;101817.00;2074173;28;20210;-70
2023/05/31 02:40:41;;;;;;;4.20;1.10;;;;;;;11.34;76.53;101830.81;2066142;28;20035;-69
2023/05/31 02:41:45;;;;;;;7.00;1.60;;;;;;;11.40;76.71;101834.41;2055285;28;20034;-69
2023/05/31 02:42:49;;;;;;;4.57;1.42;;;;;;;11.40;76.35;101829.81;2051270;28;20055;-68
2023/05/31 02:43:52;;;;;;;5.05;1.42;;;;;;;11.47;75.95;101835.00;2058724;28;20065;-69
2023/05/31 02:44:54;;;;;;;4.43;1.45;;;;;;;11.47;75.74;101826.94;2081786;28;20025;-68
2023/05/31 02:45:55;;;;;;;6.30;1.50;;;;;;;11.45;75.18;101821.81;2074151;28;20034;-69
2023/05/31 02:46:57;;;;;;;3.50;1.35;;;;;;;11.34;75.46;101823.56;2065944;28;20035;-68
2023/05/31 02:48:01;;;;;;;3.67;1.60;;;;;;;11.29;74.83;101823.53;2074019;28;20048;-68
2023/05/31 02:49:03;;;;;;;6.18;1.75;;;;;;;11.20;75.03;101824.22;2074914;28;20085;-69
2023/05/31 02:50:09;;;;;;;4.45;1.55;;;;;;;11.14;75.05;101826.03;2082818;28;20034;-68
2023/05/31 02:51:17;;;;;;;3.17;1.40;;;;;;;11.08;75.08;101829.72;2083484;28;20065;-68
2023/05/31 02:52:44;;;;;;;5.85;1.60;;;;;;;11.03;75.90;101829.66;2085934;28;21077;-68
2023/05/31 02:54:03;;;;;;;;;;;;;;;11.02;75.86;101826.16;2077166;28;20038;-68
2023/05/31 02:55:06;;;;;;;3.90;1.70;;;;;;;11.06;76.21;101823.78;2066178;28;19918;-68
2023/05/31 02:56:18;;;;;;;3.00;1.50;;;;;;;11.10;76.02;101827.59;2068722;28;20066;-68
2023/05/31 02:57:36;;;;;;;2.85;1.55;;;;;;;11.08;75.99;101821.66;2076493;28;20143;-68
2023/05/31 02:58:38;;;;;;;4.18;1.65;;;;;;;11.10;76.19;101822.22;2074197;28;20153;-68
2023/05/31 03:00:10;;;;;;;5.60;1.90;;;;;;;11.11;75.94;101829.22;2076893;28;20761;-67
2023/05/31 03:01:13;;;;;;;2.70;1.35;;;;;;;11.11;75.82;101827.34;2083661;28;20148;-68
2023/05/31 03:02:24;;;;;;;5.60;1.88;;;;;;;11.14;75.99;101823.34;2083753;28;20037;-68
2023/05/31 03:03:43;;;;;;;2.88;1.40;;;;;;;11.19;76.13;101820.72;2084954;28;20080;-68
2023/05/31 03:04:57;;;;;;;3.88;1.65;;;;;;;11.28;76.71;101818.38;2075531;28;20164;-68
2023/05/31 03:06:00;;;;;;;5.18;1.70;;;;;;;11.33;76.40;101813.88;2074458;28;20037;-68
2023/05/31 03:07:02;;;;;;;2.50;1.50;;;;;;;11.40;76.41;101808.28;2073823;28;20905;-68
2023/05/31 03:08:06;;;;;;;6.40;1.83;;;;;;;11.48;76.33;101815.91;2062619;28;20932;-68
2023/05/31 03:09:08;;;;;;;2.30;1.20;;;;;;;11.52;76.45;101813.53;2081505;28;20916;-68
2023/05/31 03:10:11;;;;;;;5.00;1.70;;;;;;;11.56;76.45;101814.63;2082255;28;20119;-68
2023/05/31 03:11:14;;;;;;;3.17;1.50;;;;;;;11.61;76.19;101814.69;2066283;28;20035;-68
2023/05/31 03:12:15;;;;;;;4.65;1.35;;;;;;;11.65;76.35;101813.13;2065754;28;20887;-68
2023/05/31 03:13:18;;;;;;;5.03;1.45;;;;;;;11.65;76.24;101813.13;2074264;28;20806;-68
2023/05/31 03:14:20;;;;;;;3.55;1.38;;;;;;;11.65;75.78;101813.13;2090468;28;20025;-67
2023/05/31 03:15:24;;;;;;;4.70;1.52;;;;;;;11.67;75.73;101800.22;2082110;28;20041;-68
2023/05/31 03:16:27;;;;;;;4.20;1.50;;;;;;;11.74;75.87;101808.09;2074191;28;20750;-68
2023/05/31 03:17:28;;;;;;;5.28;1.77;;;;;;;11.79;75.90;101805.41;2065945;28;20154;-70
2023/05/31 03:18:32;;;;;;;3.17;1.42;;;;;;;11.81;75.77;101804.09;2073900;28;21228;-69
2023/05/31 03:19:37;;;;;;;5.53;2.00;;;;;;;11.84;75.38;101810.84;2075370;28;20213;-69
2023/05/31 03:20:41;;;;;;;10.00;5.40;;;;;;;11.87;75.43;101814.97;2082928;28;20852;-69
2023/05/31 03:21:47;;;;;;;7.95;3.55;;;;;;;11.89;75.05;101810.94;2081421;28;20052;-70
2023/05/31 03:22:48;;;;;;;7.05;2.10;;;;;;;11.93;75.06;101805.84;2066414;28;20073;-70
2023/05/31 03:23:51;;;;;;;7.25;1.92;;;;;;;11.93;75.16;101806.66;2074121;28;20068;-69
2023/05/31 03:24:53;;;;;;;6.00;2.10;;;;;;;11.97;75.19;101801.56;2082028;28;20050;-69
2023/05/31 03:25:57;;;;;;;4.38;1.92;;;;;;;11.96;74.68;101805.34;2090303;28;20092;-70
2023/05/31 03:26:58;;;;;;;6.97;1.90;;;;;;;11.97;74.82;101804.25;2090225;28;20045;-70
2023/05/31 03:28:03;;;;;;;7.15;1.70;;;;;;;11.99;74.91;101802.94;2088268;28;20030;-70
2023/05/31 03:29:06;;;;;;;5.57;2.08;;;;;;;12.02;74.35;101804.31;2081956;28;20045;-70
2023/05/31 03:30:12;;;;;;;6.15;1.70;;;;;;;12.07;74.60;101801.63;2074095;28;20044;-69
2023/05/31 03:31:23;;;;;;;4.70;1.88;;;;;;;12.14;74.57;101802.25;2069256;28;20070;-69
2023/05/31 03:32:28;;;;;;;6.18;1.77;;;;;;;12.18;74.04;101800.66;2074061;28;20991;-69
2023/05/31 03:33:31;;;;;;;5.85;1.80;;;;;;;12.20;73.85;101795.00;2065749;28;20038;-69
2023/05/31 03:34:32;;;;;;;6.57;2.00;;;;;;;12.23;73.58;101806.09;2057775;28;20810;-69
2023/05/31 03:35:35;;;;;;;6.72;2.08;;;;;;;12.26;73.48;101796.66;2065734;28;20094;-69
2023/05/31 03:36:39;;;;;;;6.32;1.98;;;;;;;12.31;73.08;101793.19;2067785;28;20946;-69
2023/05/31 03:38:01;;;;;;;6.63;1.90;;;;;;;12.35;73.07;101792.41;2072474;28;20065;-68
2023/05/31 03:39:06;;;;;;;4.50;1.80;;;;;;;12.40;72.57;101794.34;2089713;28;20037;-69
2023/05/31 03:40:12;;;;;;;6.55;1.90;;;;;;;12.42;72.51;101787.63;2073849;28;20081;-69
2023/05/31 03:41:14;;;;;;;6.97;2.20;;;;;;;12.46;72.54;101787.91;2074962;28;20753;-69
2023/05/31 03:42:16;;;;;;;4.07;1.83;;;;;;;12.50;72.28;101789.00;2073943;28;20101;-69
2023/05/31 03:43:18;;;;;;;4.95;2.03;;;;;;;12.54;72.14;101790.09;2065801;28;20046;-69
2023/05/31 03:44:21;;;;;;;5.07;1.77;;;;;;;12.56;72.17;101787.94;2073777;28;20860;-69
2023/05/31 03:45:22;;;;;;;4.05;1.65;;;;;;;12.63;72.14;101782.31;2082187;28;20121;-69
2023/05/31 03:46:28;;;;;;;6.68;2.10;;;;;;;12.64;71.78;101784.78;2081785;28;20046;-69
2023/05/31 03:47:30;;;;;;;8.93;2.03;;;;;;;12.65;72.00;101781.00;2073882;28;20034;-69
2023/05/31 03:48:32;;;;;;;5.68;1.98;;;;;;;12.69;71.67;101782.06;2082418;28;20041;-69
2023/05/31 03:49:33;;;;;;;4.15;1.90;;;;;;;12.73;71.74;101783.16;2073508;28;20153;-69
2023/05/31 03:50:35;;;;;;;7.10;2.78;;;;;;;12.78;71.62;101789.69;2074073;28;20041;-69
2023/05/31 03:51:38;;;;;;;5.70;1.90;;;;;;;12.81;71.71;101783.75;2073245;28;20168;-69
2023/05/31 03:52:41;;;;;;;5.75;1.88;;;;;;;12.84;71.57;101789.44;2058248;28;20043;-69
2023/05/31 03:53:43;;;;;;;4.82;1.85;;;;;;;12.90;71.28;101788.38;2074001;28;20034;-69
2023/05/31 03:54:46;;;;;;;6.07;1.70;;;;;;;12.92;71.21;101790.81;2082253;28;20030;-69
2023/05/31 03:55:50;;;;;;;8.05;1.83;;;;;;;12.95;71.11;101784.88;2065852;28;20086;-69
2023/05/31 03:56:53;;;;;;;5.75;1.90;;;;;;;12.98;71.00;101787.06;2065508;28;20027;-69
2023/05/31 03:57:59;;;;;;;6.70;1.77;;;;;;;13.07;70.78;101785.47;2079932;28;20064;-69
2023/05/31 03:59:00;;;;;;;4.72;1.60;;;;;;;13.13;70.65;101787.13;2073107;28;20038;-69
2023/05/31 04:00:02;;;;;;;5.47;1.80;;;;;;;13.20;70.41;101781.47;2065036;28;20869;-69
2023/05/31 04:01:06;;;;;;;4.07;1.70;;;;;;;13.25;69.87;101783.41;2066272;28;20042;-69
2023/05/31 04:02:08;;;;;;;4.95;1.67;;;;;;;13.25;69.56;101773.41;2081247;28;20052;-68
2023/05/31 04:03:13;;;;;;;5.57;1.60;;;;;;;13.34;69.53;101771.00;2074399;28;21002;-69
2023/05/31 04:04:15;;;;;;;3.03;1.30;;;;;;;13.38;68.78;101772.91;2073701;28;20145;-69
2023/05/31 04:05:17;;;;;;;4.80;1.58;;;;;;;13.54;68.47;101773.72;2076334;28;20093;-69
2023/05/31 04:06:18;;;;;;;4.68;1.35;;;;;;;13.72;67.83;101774.28;2081671;28;20053;-70
2023/05/31 04:07:20;;;;;;;5.97;1.60;;;;;;;13.86;67.24;101772.66;2079207;28;20891;-69
2023/05/31 04:08:22;;;;;;;5.68;1.48;;;;;;;14.00;66.75;101773.75;2070706;28;20561;-68
2023/05/31 04:09:26;;;;;;;3.80;1.42;;;;;;;14.10;66.33;101767.53;2081015;28;20838;-69
2023/05/31 04:10:29;;;;;;;2.38;1.23;;;;;;;14.25;66.18;101770.22;2065110;28;20157;-68
2023/05/31 04:11:31;;;;;;;3.03;1.38;;;;;;;14.36;65.94;101768.28;2072451;28;20232;-70
2023/05/31 04:12:33;;;;;;;2.15;0.98;;;;;;;14.43;65.28;101766.09;2072325;28;20038;-69
2023/05/31 04:13:35;;;;;;;6.32;1.27;;;;;;;14.46;64.86;101765.53;2080905;28;20034;-70
2023/05/31 04:14:36;;;;;;;3.58;1.52;;;;;;;14.56;64.93;101765.56;2067776;28;20044;-68
2023/05/31 04:15:39;;;;;;;5.95;1.58;;;;;;;14.64;64.75;101758.75;2072422;28;20330;-69
2023/05/31 04:16:41;;;;;;;3.88;1.40;;;;;;;14.71;64.35;101763.88;2072202;28;21064;-69
2023/05/31 04:17:43;;;;;;;3.75;1.48;;;;;;;14.76;64.25;101758.44;2068072;28;21343;-69
2023/05/31 04:18:47;;;;;;;3.83;1.60;;;;;;;14.80;63.97;101759.50;2083219;28;20992;-70
2023/05/31 04:19:51;;;;;;;3.80;1.65;;;;;;;14.81;63.71;101761.13;2081091;28;20180;-70
2023/05/31 04:20:52;;;;;;;6.75;1.80;;;;;;;14.82;63.58;101757.34;2068192;28;20108;-69
2023/05/31 04:21:55;;;;;;;4.20;1.58;;;;;;;14.80;63.64;101754.09;2066098;28;20051;-68
2023/05/31 04:23:00;;;;;;;3.03;1.20;;;;;;;14.78;63.23;101756.25;2068709;28;20042;-69
2023/05/31 04:24:02;;;;;;;7.28;1.52;;;;;;;14.82;63.67;101752.72;2085433;28;20148;-69
2023/05/31 04:25:09;;;;;;;4.38;1.60;;;;;;;14.84;63.60;101749.72;2083128;28;20041;-70
2023/05/31 04:26:17;;;;;;;5.13;1.52;;;;;;;14.89;63.18;101749.72;2068662;28;20038;-69
2023/05/31 04:27:21;;;;;;;5.35;1.60;;;;;;;14.87;62.83;101754.59;2076842;28;20043;-69
2023/05/31 04:28:25;;;;;;;2.60;1.20;;;;;;;14.93;63.06;101753.47;2083713;28;20104;-69
2023/05/31 04:29:28;;;;;;;3.08;1.55;;;;;;;14.93;62.11;101748.06;2066345;28;20047;-70
2023/05/31 04:30:33;;;;;;;3.13;1.40;;;;;;;14.97;61.98;101748.31;2061520;28;20077;-69
2023/05/31 04:31:40;;;;;;;8.57;1.80;;;;;;;15.00;61.48;101751.28;2074686;28;20046;-69
2023/05/31 04:32:50;;;;;;;5.72;1.60;;;;;;;14.97;61.83;101743.69;2065848;28;20081;-69
2023/05/31 04:33:53;;;;;;;4.35;1.50;;;;;;;14.97;62.08;101745.59;2073369;28;20044;-69
2023/05/31 04:34:57;;;;;;;6.20;1.48;;;;;;;15.01;61.75;101742.06;2065486;28;21055;-69
2023/05/31 04:36:04;;;;;;;9.00;1.70;;;;;;;15.07;61.52;101746.38;2073109;28;20960;-70
2023/05/31 04:37:07;;;;;;;5.95;1.60;;;;;;;15.08;61.17;101744.47;2077709;28;20034;-69
2023/05/31 04:38:09;;;;;;;8.77;1.55;;;;;;;15.15;60.98;101738.75;2060300;28;20043;-69
2023/05/31 04:39:14;;;;;;;6.32;1.73;;;;;;;15.19;60.76;101737.88;2059304;28;20035;-69
2023/05/31 04:40:16;;;;;;;4.10;1.55;;;;;;;15.24;60.79;101747.91;2056524;28;20043;-69
2023/05/31 04:41:18;;;;;;;3.88;1.45;;;;;;;15.28;60.47;101738.91;2065868;28;20027;-68
2023/05/31 04:42:24;;;;;;;4.30;1.65;;;;;;;15.35;60.34;101727.75;2080721;28;20047;-69
2023/05/31 04:43:26;;;;;;;3.42;1.40;;;;;;;15.41;60.70;101732.06;2064169;28;20146;-68
2023/05/31 04:44:30;;;;;;;7.53;1.55;;;;;;;15.45;60.22;101732.31;2056444;28;20044;-69
2023/05/31 04:45:34;;;;;;;4.55;1.60;;;;;;;15.49;59.89;101739.59;2065489;28;20356;-72
2023/05/31 04:46:36;;;;;;;6.88;1.67;;;;;;;15.48;59.64;101737.97;2071990;28;20158;-71
2023/05/31 04:47:38;;;;;;;8.63;1.60;;;;;;;15.58;59.51;101736.28;2072004;28;20832;-69
2023/05/31 04:48:41;;;;;;;4.32;1.55;;;;;;;15.74;59.46;101735.09;2080311;28;20022;-68
2023/05/31 04:49:43;;;;;;;6.82;1.70;;;;;;;15.90;58.48;101731.16;2080651;28;20049;-71
2023/05/31 04:50:46;;;;;;;3.05;1.58;;;;;;;16.19;58.44;101735.75;2064298;28;20199;-69
2023/05/31 04:51:48;;;;;;;3.90;1.35;;;;;;;16.41;57.62;101732.53;2054247;28;20027;-68
2023/05/31 04:52:52;;;;;;;5.68;1.55;;;;;;;16.65;57.03;101736.03;2073291;28;20090;-69
2023/05/31 04:53:58;;;;;;;4.25;1.40;;;;;;;16.85;56.18;101737.72;2089262;28;20971;-69
2023/05/31 04:55:00;;;;;;;3.63;1.38;;;;;;;17.08;55.79;101735.22;2081173;28;20883;-68
2023/05/31 04:56:04;;;;;;;3.45;1.52;;;;;;;17.24;54.95;101728.47;2081615;28;20034;-68
2023/05/31 04:57:08;;;;;;;6.97;1.70;;;;;;;17.45;54.46;101733.59;2089720;28;20037;-69
2023/05/31 04:58:10;;;;;;;7.05;1.42;;;;;;;17.59;54.03;101731.72;2081818;28;20876;-68
2023/05/31 04:59:12;;;;;;;4.75;1.52;;;;;;;17.70;53.48;101735.91;2073117;28;20757;-68